Time;durP1;ratioP1;P1;durP2;ratioP2;P2;SDS_P1;SDS_P2;PMS_P1;PMS_P2;Temp;Humidity;BMP_temperature;BMP_pressure;BME280_temperature;BME280_humidity;BME280_pressure;Samples;Min_cycle;Max_cycle;Signal;HPM_P1;HPM_P2
2022/02/02 00:00:22;;;;;;;15.25;5.47;;;;;;;;;;4974602;28;20125;-79
2022/02/02 00:02:56;;;;;;;12.63;5.80;;;;;;;;;;4978000;28;20117;-79
2022/02/02 00:05:29;;;;;;;17.85;7.13;;;;;;;;;;4961329;28;20027;-79
2022/02/02 00:13:02;;;;;;;9.82;5.40;;;;;;;;;;4968660;28;20035;-79
2022/02/02 00:15:53;;;;;;;15.70;6.57;;;;;;;;;;4963906;28;20086;-79
2022/02/02 00:21:00;;;;;;;15.23;6.63;;;;;;;;;;4972368;28;20026;-79
2022/02/02 00:23:33;;;;;;;14.10;5.45;;;;;;;;;;4952275;28;20039;-80
2022/02/02 00:26:05;;;;;;;14.80;6.35;;;;;;;;;;4980466;28;20543;-79
2022/02/02 00:28:36;;;;;;;16.60;6.13;;;;;;;;;;4964414;28;20023;-79
2022/02/02 00:31:07;;;;;;;18.90;6.05;;;;;;;;;;4975241;28;20031;-79
2022/02/02 00:33:40;;;;;;;;;;;8.30;99.90;;;;;;4972177;28;20031;-79
2022/02/02 00:36:11;;;;;;;12.15;5.28;;;;;;;;;;4966466;28;20399;-78
2022/02/02 00:38:37;;;;;;;14.05;5.60;;;;;;;;;;4958758;28;20027;-80
2022/02/02 00:41:03;;;;;;;15.30;5.32;;;;;;;;;;4971428;28;20026;-81
2022/02/02 00:43:30;;;;;;;16.52;5.45;;;;;;;;;;4955635;28;20039;-80
2022/02/02 00:45:56;;;;;;;18.25;5.55;;;;;;;;;;4979355;28;20030;-80
2022/02/02 00:48:26;;;;;;;12.95;4.70;;;;;;;;;;4958211;28;20117;-81
2022/02/02 00:50:53;;;;;;;15.55;5.28;;;;;;;;;;4964012;28;20030;-79
2022/02/02 00:53:19;;;;;;;14.90;5.43;;;;;;;;;;4959501;28;20448;-80
2022/02/02 00:55:45;;;;;;;12.00;4.55;;;;;;;;;;4958008;28;20027;-80
2022/02/02 00:58:12;;;;;;;14.63;5.32;;;;;;;;;;4976543;28;20027;-79
2022/02/02 01:00:38;;;;;;;15.30;4.20;;;;;;;;;;4963583;28;20039;-80
2022/02/02 01:03:05;;;;;;;12.52;4.78;;;;;;;;;;4974477;28;20473;-80
2022/02/02 01:05:31;;;;;;;11.38;4.07;;;;;;;;;;4965219;28;20041;-79
2022/02/02 01:10:33;;;;;;;11.10;4.07;;;;;;;;;;4974658;28;20066;-80
2022/02/02 01:16:32;;;;;;;14.25;4.07;;;;;;;;;;4971632;28;20031;-80
2022/02/02 01:19:00;;;;;;;13.93;3.67;;;;;;;;;;5013278;23;20039;-81
2022/02/02 01:21:31;;;;;;;16.10;4.63;;;;;;;;;;5006990;28;20030;-82
2022/02/02 01:29:31;;;;;;;11.90;4.65;;;;;;;;;;5000784;28;20040;-83
2022/02/02 01:31:59;;;;;;;11.47;3.47;;;;;;;;;;5003859;28;20029;-81
2022/02/02 01:34:25;;;;;;;12.75;4.28;;;;;;;;;;5002267;28;20270;-82
2022/02/02 01:36:54;;;;;;;13.52;3.60;;;;;;;;;;4992718;28;20448;-83
2022/02/02 01:39:27;;;;;;;11.18;3.85;;;;;;;;;;5009735;28;20565;-83
2022/02/02 01:41:58;;;;;;;13.50;4.15;;;;;;;;;;5010724;28;20560;-83
2022/02/02 01:56:13;;;;;;;13.85;3.85;;;;;;;;;;4975974;28;20019;-81
2022/02/02 02:01:24;;;;;;;10.18;3.35;;;;;;;;;;5002763;28;20045;-83
2022/02/02 02:04:02;;;;;;;15.50;4.10;;;;;;;;;;5006876;28;20054;-80
2022/02/02 02:06:31;;;;;;;11.20;4.07;;;;;;;;;;4993392;28;20034;-84
2022/02/02 02:09:16;;;;;;;12.68;4.32;;;;;;;;;;5005708;28;20033;-82
2022/02/02 02:11:57;;;;;;;9.18;4.05;;;;;;;;;;5004285;28;20031;-83
2022/02/02 02:17:05;;;;;;;12.63;4.10;;;;;;;;;;4993306;28;20034;-82
2022/02/02 02:19:31;;;;;;;11.00;3.10;;;;;;;;;;4987881;28;20042;-83
2022/02/02 02:25:24;;;;;;;12.43;3.30;;;;;;;;;;5002149;28;20049;-81
2022/02/02 02:27:53;;;;;;;13.65;3.53;;;;;;;;;;5003897;28;20049;-82
2022/02/02 02:33:31;;;;;;;13.60;4.05;;;;;;;;;;4988260;28;20045;-81
2022/02/02 02:56:14;;;;;;;12.50;3.28;;;;;;;;;;5003485;28;20089;-82
2022/02/02 02:58:48;;;;;;;15.75;3.70;;;;;;;;;;5010975;28;20043;-83
2022/02/02 03:30:05;;;;;;;9.07;2.67;;;;;;;;;;4999553;28;20061;-82
2022/02/02 03:33:06;;;;;;;14.05;3.28;;;;;;;;;;5014096;28;20031;-84
2022/02/02 03:58:44;;;;;;;12.38;2.97;;;;;;;;;;5003420;28;20060;-82
2022/02/02 04:52:07;;;;;;;12.38;3.95;;;;;;;;;;4998656;28;20584;-81
2022/02/02 04:54:52;;;;;;;12.98;3.65;;;;;;;;;;4999419;28;20041;-83
2022/02/02 05:08:23;;;;;;;13.25;2.92;;;;;;;;;;5009875;28;20086;-83
2022/02/02 05:16:35;;;;;;;14.57;3.65;;;;;;;;;;5004288;28;20042;-81
2022/02/02 05:19:50;;;;;;;8.88;2.85;;;;;;;;;;4989870;28;20026;-83
2022/02/02 05:44:06;;;;;;;14.35;3.80;;;;;;;;;;4999001;28;20035;-83
2022/02/02 05:49:43;;;;;;;10.55;3.25;;;;;;;;;;5007225;28;20061;-83
2022/02/02 05:52:32;;;;;;;13.43;3.50;;;;;;;;;;4996978;28;20039;-82
2022/02/02 05:54:59;;;;;;;12.95;3.22;;;;;;;;;;4999147;28;20019;-84
2022/02/02 05:57:27;;;;;;;13.55;3.17;;;;;;;;;;5006664;28;20548;-82
2022/02/02 05:59:55;;;;;;;15.38;3.33;;;;;;;;;;4976436;28;20061;-83
2022/02/02 06:05:38;;;;;;;15.27;4.47;;;8.50;99.90;;;;;;5004660;28;20041;-81
2022/02/02 06:08:11;;;;;;;15.68;3.72;;;;;;;;;;5011732;28;20054;-81
2022/02/02 06:10:42;;;;;;;13.10;3.95;;;;;;;;;;4991382;28;20038;-80
2022/02/02 06:13:09;;;;;;;10.52;3.30;;;;;;;;;;5011028;28;20023;-83
2022/02/02 06:15:39;;;;;;;18.45;4.90;;;;;;;;;;4994209;28;20038;-80
2022/02/02 06:18:06;;;;;;;13.38;3.92;;;;;;;;;;4983255;28;20037;-83
2022/02/02 06:20:53;;;;;;;11.90;3.50;;;;;;;;;;5015287;28;20064;-83
2022/02/02 06:23:29;;;;;;;14.13;3.95;;;;;;;;;;5005422;28;20274;-82
2022/02/02 06:26:14;;;;;;;11.70;3.70;;;;;;;;;;5004775;28;20018;-83
2022/02/02 06:28:45;;;;;;;17.48;3.72;;;;;;;;;;5003053;28;20014;-84
2022/02/02 06:31:20;;;;;;;12.77;3.53;;;;;;;;;;5008304;28;20039;-83
2022/02/02 06:33:49;;;;;;;10.90;3.03;;;;;;;;;;5007560;28;20022;-83
2022/02/02 06:36:17;;;;;;;12.43;3.03;;;;;;;;;;4989620;28;20041;-83
2022/02/02 06:38:48;;;;;;;12.30;3.72;;;;;;;;;;5014613;28;20018;-83
2022/02/02 06:41:42;;;;;;;11.15;3.05;;;;;;;;;;5010261;28;20030;-85
2022/02/02 06:44:35;;;;;;;22.98;3.30;;;;;;;;;;5002102;28;20022;-83
2022/02/02 06:47:35;;;;;;;11.25;2.95;;;;;;;;;;5007044;28;20034;-82
2022/02/02 06:53:29;;;;;;;11.65;2.97;;;;;;;;;;5012371;28;20054;-84
2022/02/02 06:56:40;;;;;;;13.07;3.47;;;;;;;;;;5010641;28;20022;-83
2022/02/02 07:08:57;;;;;;;13.57;3.35;;;8.40;99.90;;;;;;5006736;28;20069;-84
2022/02/02 07:11:35;;;;;;;17.67;4.22;;;;;;;;;;5002807;28;20098;-81
2022/02/02 07:14:23;;;;;;;12.30;2.78;;;;;;;;;;5009022;28;20013;-83
2022/02/02 07:19:30;;;;;;;11.00;3.10;;;;;;;;;;5004091;28;20027;-82
2022/02/02 07:27:36;;;;;;;13.88;3.50;;;;;;;;;;5004175;28;20046;-83
2022/02/02 07:30:27;;;;;;;10.68;3.30;;;;;;;;;;5007088;28;20030;-82
2022/02/02 07:33:14;;;;;;;12.02;3.13;;;;;;;;;;4988736;28;20039;-83
2022/02/02 07:35:52;;;;;;;25.02;3.70;;;;;;;;;;4991292;28;20055;-81
2022/02/02 07:38:22;;;;;;;14.93;3.65;;;;;;;;;;5015660;28;20019;-84
2022/02/02 07:40:51;;;;;;;13.50;3.33;;;;;;;;;;5001518;28;20031;-82
2022/02/02 07:43:32;;;;;;;11.00;3.67;;;;;;;;;;4992348;28;20035;-83
2022/02/02 07:46:08;;;;;;;10.18;4.18;;;;;;;;;;5007564;28;20074;-84
2022/02/02 07:48:37;;;;;;;13.63;3.22;;;;;;;;;;4981265;28;20027;-82
2022/02/02 07:51:04;;;;;;;9.48;3.03;;;;;;;;;;5010468;28;20081;-81
2022/02/02 07:53:40;;;;;;;12.35;2.85;;;;;;;;;;5005218;28;20022;-83
2022/02/02 07:56:14;;;;;;;15.00;3.30;;;;;;;;;;5001377;28;20023;-81
2022/02/02 07:58:47;;;;;;;11.75;3.55;;;;;;;;;;5013809;28;20014;-81
2022/02/02 08:01:20;;;;;;;12.75;3.28;;;;;;;;;;5001126;28;20466;-82
2022/02/02 08:03:53;;;;;;;12.63;3.10;;;;;;;;;;5013626;28;20070;-83
2022/02/02 08:06:24;;;;;;;11.88;3.75;;;;;;;;;;5014719;28;20057;-83
2022/02/02 08:08:51;;;;;;;8.25;3.13;;;;;;;;;;5013434;28;20034;-83
2022/02/02 08:11:38;;;;;;;13.85;3.53;;;;;;;;;;5014162;28;20057;-83
2022/02/02 08:14:06;;;;;;;9.25;3.10;;;;;;;;;;5011218;28;20034;-82
2022/02/02 08:16:35;;;;;;;14.65;4.22;;;;;;;;;;5012549;28;20495;-83
2022/02/02 08:19:17;;;;;;;15.25;3.35;;;;;;;;;;5009973;28;20054;-83
2022/02/02 08:22:08;;;;;;;13.40;3.03;;;;;;;;;;5014286;28;20027;-82
2022/02/02 08:28:13;;;;;;;10.55;3.33;;;;;;;;;;5003946;28;20034;-82
2022/02/02 08:30:39;;;;;;;10.63;3.30;;;;;;;;;;4977254;28;20050;-82
2022/02/02 08:33:29;;;;;;;9.73;3.17;;;8.90;99.90;;;;;;5007411;28;20153;-84
2022/02/02 08:35:56;;;;;;;13.52;2.95;;;;;;;;;;4995597;28;20029;-83
2022/02/02 08:40:57;;;;;;;12.02;4.03;;;;;;;;;;5001951;28;20030;-83
2022/02/02 08:43:52;;;;;;;11.10;3.13;;;;;;;;;;4984349;28;20066;-82
2022/02/02 08:46:26;;;;;;;12.27;3.35;;;;;;;;;;5007320;28;20038;-82
2022/02/02 08:48:55;;;;;;;16.08;3.78;;;;;;;;;;5001932;28;20019;-82
2022/02/02 08:51:24;;;;;;;13.93;4.10;;;;;;;;;;5005632;28;20023;-82
2022/02/02 08:59:40;;;;;;;14.82;3.75;;;;;;;;;;5006249;28;20026;-84
2022/02/02 09:02:05;;;;;;;15.13;3.30;;;;;;;;;;4989989;28;20032;-83
2022/02/02 09:07:18;;;;;;;11.70;3.00;;;;;;;;;;5008764;28;19920;-83
2022/02/02 09:09:54;;;;;;;10.23;3.70;;;;;;;;;;4981435;28;20050;-83
2022/02/02 09:34:04;;;;;;;12.32;2.95;;;;;;;;;;5005076;28;20027;-82
2022/02/02 09:36:33;;;;;;;12.20;3.80;;;;;;;;;;4999566;28;20022;-83
2022/02/02 09:39:17;;;;;;;14.02;3.10;;;;;;;;;;5004898;28;20046;-82
2022/02/02 09:41:47;;;;;;;13.55;3.40;;;;;;;;;;5003149;28;20042;-81
2022/02/02 09:44:20;;;;;;;12.88;3.63;;;;;;;;;;4992577;28;20038;-83
2022/02/02 09:47:05;;;;;;;16.55;3.65;;;;;;;;;;4993171;28;20038;-82
2022/02/02 09:52:34;;;;;;;9.57;3.00;;;;;;;;;;5013507;28;20046;-81
2022/02/02 09:55:26;;;;;;;13.07;3.22;;;;;;;;;;5004617;28;20037;-82
2022/02/02 09:58:27;;;;;;;11.68;3.10;;;;;;;;;;5005626;28;20034;-81
2022/02/02 10:04:37;;;;;;;13.63;3.45;;;;;;;;;;5005845;28;20057;-83
2022/02/02 10:15:29;;;;;;;16.98;4.70;;;;;;;;;;5002911;28;20493;-81
2022/02/02 10:17:57;;;;;;;14.25;4.32;;;;;;;;;;4975076;28;20026;-83
2022/02/02 10:20:27;;;;;;;17.40;5.28;;;;;;;;;;4985175;28;20022;-83
2022/02/02 10:22:57;;;;;;;11.75;4.28;;;;;;;;;;4976529;28;20035;-81
2022/02/02 10:25:25;;;;;;;15.50;3.78;;;;;;;;;;4968339;28;20030;-82
2022/02/02 10:27:52;;;;;;;13.90;3.72;;;;;;;;;;4994561;28;20588;-82
2022/02/02 10:30:20;;;;;;;17.92;5.47;;;;;;;;;;4990434;28;20037;-82
2022/02/02 10:33:14;;;;;;;15.85;4.13;;;;;;;;;;5005901;28;20018;-81
2022/02/02 10:35:42;;;;;;;11.60;3.83;;;;;;;;;;4992268;28;20030;-82
2022/02/02 10:38:23;;;;;;;23.08;5.90;;;;;;;;;;4990896;28;20022;-81
2022/02/02 10:40:55;;;;;;;14.00;4.45;;;;;;;;;;5004492;28;20026;-82
2022/02/02 10:43:29;;;;;;;14.85;4.57;;;;;;;;;;4981562;28;20089;-83
2022/02/02 10:45:54;;;;;;;;;;;8.90;99.90;;;;;;5007267;28;20386;-83
2022/02/02 10:48:32;;;;;;;16.75;4.43;;;;;;;;;;4985423;28;19910;-82
2022/02/02 10:51:39;;;;;;;18.80;5.05;;;;;;;;;;4990633;28;20034;-83
2022/02/02 10:57:00;;;;;;;16.15;4.82;;;;;;;;;;5000386;28;20019;-81
2022/02/02 11:00:03;;;;;;;17.60;5.82;;;;;;;;;;4998349;28;20026;-82
2022/02/02 11:08:08;;;;;;;15.80;5.03;;;;;;;;;;4999272;28;20066;-83
2022/02/02 11:10:52;;;;;;;15.40;5.25;;;;;;;;;;5011562;28;20046;-84
2022/02/02 11:13:19;;;;;;;13.63;4.65;;;;;;;;;;5013423;28;20047;-80
2022/02/02 11:15:46;;;;;;;13.25;4.47;;;;;;;;;;5001298;28;20022;-82
2022/02/02 11:18:20;;;;;;;13.90;4.60;;;;;;;;;;5003857;28;20031;-84
2022/02/02 11:20:55;;;;;;;16.85;4.95;;;;;;;;;;5015167;28;20026;-81
2022/02/02 11:23:22;;;;;;;10.55;4.03;;;;;;;;;;4997484;28;20041;-85
2022/02/02 11:25:58;;;;;;;14.27;4.10;;;;;;;;;;4995557;28;20023;-83
2022/02/02 11:28:25;;;;;;;17.52;4.97;;;;;;;;;;5006848;28;20153;-82
2022/02/02 11:31:28;;;;;;;14.57;4.35;;;;;;;;;;5008162;28;20089;-83
2022/02/02 11:34:14;;;;;;;11.75;4.65;;;;;;;;;;5019122;28;20023;-81
2022/02/02 11:40:08;;;;;;;11.25;4.68;;;9.40;99.90;;;;;;4994443;23;20345;-81
2022/02/02 11:42:56;;;;;;;11.80;4.28;;;9.40;99.90;;;;;;4975652;28;20035;-80
2022/02/02 11:45:45;;;;;;;12.70;4.88;;;9.40;99.90;;;;;;4971693;28;20030;-80
2022/02/02 11:48:20;;;;;;;12.95;4.90;;;;;;;;;;4977344;28;20035;-79
2022/02/02 11:50:53;;;;;;;14.90;4.90;;;9.70;99.90;;;;;;4979120;28;20031;-79
2022/02/02 11:53:53;;;;;;;11.18;4.00;;;9.80;99.90;;;;;;4977174;28;20083;-81
2022/02/02 11:56:22;;;;;;;12.63;4.97;;;;;;;;;;4975732;28;20030;-81
2022/02/02 11:58:49;;;;;;;10.43;3.25;;;10.00;99.90;;;;;;4981026;28;20899;-80
2022/02/02 12:01:36;;;;;;;9.38;3.13;;;;;;;;;;4961266;28;20081;-80
2022/02/02 12:04:23;;;;;;;7.18;2.53;;;10.00;99.90;;;;;;4972266;28;20031;-81
2022/02/02 12:09:44;;;;;;;8.07;2.83;;;10.00;99.90;;;;;;4976992;28;20036;-80
2022/02/02 12:57:49;;;;;;;6.60;2.92;;;;;;;;;;4986147;28;20034;-80
2022/02/02 13:01:07;;;;;;;8.48;4.00;;;;;;;;;;4978430;28;20033;-80
2022/02/02 13:03:10;;;;;;;8.32;2.75;;;;;;;;;;4981398;28;20093;-80
2022/02/02 13:05:37;;;;;;;9.10;3.38;;;;;;;;;;4983145;28;20102;-81
2022/02/02 13:08:06;;;;;;;5.63;3.08;;;;;;;;;;4964349;28;20023;-81
2022/02/02 13:10:33;;;;;;;7.00;3.05;;;;;;;;;;4982563;28;20018;-80
2022/02/02 13:13:13;;;;;;;7.57;3.00;;;10.10;99.90;;;;;;4979950;28;20023;-81
2022/02/02 13:29:54;;;;;;;10.90;3.33;;;;;;;;;;4985800;28;20029;-80
2022/02/02 13:35:18;;;;;;;8.20;3.13;;;;;;;;;;4986678;28;20034;-80
2022/02/02 13:38:37;;;;;;;8.70;3.92;;;;;;;;;;4990150;28;20018;-81
2022/02/02 13:52:49;;;;;;;6.78;3.65;;;;;;;;;;4984343;28;20050;-81
2022/02/02 13:54:48;;;;;;;6.60;2.70;;;;;;;;;;4972315;28;20054;-80
2022/02/02 13:58:00;;;;;;;6.53;3.55;;;;;;;;;;4962543;28;20037;-80
2022/02/02 14:00:28;;;;;;;7.93;3.00;;;;;;;;;;4979628;28;20039;-81
2022/02/02 14:32:56;;;;;;;10.40;3.60;;;;;;;;;;4984060;28;20531;-80
2022/02/02 14:35:22;;;;;;;6.93;3.08;;;;;;;;;;4982820;28;20097;-81
2022/02/02 14:37:51;;;;;;;5.68;2.88;;;;;;;;;;4984395;28;20033;-80
2022/02/02 14:40:32;;;;;;;6.65;3.47;;;;;;;;;;4963605;28;20023;-80
2022/02/02 14:43:02;;;;;;;6.50;3.53;;;;;;;;;;4985914;28;20027;-81
2022/02/02 14:45:32;;;;;;;8.27;3.77;;;;;;;;;;4995210;28;20066;-81
2022/02/02 14:48:15;;;;;;;10.10;4.05;;;;;;;;;;4988264;28;20034;-80
2022/02/02 14:51:12;;;;;;;8.32;3.58;;;;;;;;;;4987864;28;20038;-81
2022/02/02 15:31:43;;;;;;;11.85;5.43;;;;;;;;;;4985912;28;20026;-80
2022/02/02 15:34:16;;;;;;;15.95;5.63;;;;;;;;;;4993098;28;20030;-80
2022/02/02 15:39:15;;;;;;;9.68;5.22;;;;;;;;;;4984756;28;20042;-81
2022/02/02 15:42:05;;;;;;;9.73;4.53;;;;;;;;;;4979234;28;20042;-81
2022/02/02 15:58:16;;;;;;;9.13;3.85;;;;;;;;;;4988616;28;20049;-80
2022/02/02 16:01:43;;;;;;;9.88;4.75;;;;;;;;;;4985999;28;20062;-81
2022/02/02 16:03:46;;;;;;;7.80;3.50;;;;;;;;;;4995865;28;20053;-80
2022/02/02 16:06:22;;;;;;;8.48;3.70;;;;;;;;;;4982408;28;20027;-80
2022/02/02 16:08:57;;;;;;;6.65;3.58;;;;;;;;;;4993863;28;20027;-80
2022/02/02 16:11:27;;;;;;;4.70;2.60;;;;;;;;;;4993780;28;20045;-80
2022/02/02 16:13:59;;;;;;;7.22;3.78;;;;;;;;;;4969732;28;20019;-81
2022/02/02 16:19:20;;;;;;;5.35;2.70;;;;;;;;;;4983447;28;20162;-79
2022/02/02 16:33:14;;;;;;;8.05;3.53;;;;;;;;;;4975784;28;20081;-80
2022/02/02 16:35:55;;;;;;;6.72;3.60;;;;;;;;;;4975224;28;20027;-80
2022/02/02 16:38:24;;;;;;;8.93;3.60;;;;;;;;;;4974732;28;20042;-79
2022/02/02 16:40:52;;;;;;;6.45;3.50;;;;;;;;;;4973953;28;20217;-80
2022/02/02 16:43:22;;;;;;;7.32;3.55;;;;;;;;;;4977289;28;20504;-81
2022/02/02 16:45:52;;;;;;;9.48;3.63;;;;;;;;;;4975412;28;20035;-79
2022/02/02 16:48:19;;;;;;;8.07;3.72;;;;;;;;;;4969436;28;20031;-79
2022/02/02 16:50:57;;;;;;;7.93;3.40;;;;;;;;;;4964907;28;20067;-79
2022/02/02 16:53:37;;;;;;;7.85;3.45;;;;;;;;;;4979846;28;20023;-79
2022/02/02 16:56:16;;;;;;;5.03;3.17;;;;;;;;;;4964206;28;20095;-79
2022/02/02 17:32:05;;;;;;;8.38;3.60;;;;;;;;;;4978200;28;20061;-80
2022/02/02 17:34:40;;;;;;;7.43;3.58;;;;;;;;;;4978128;28;20031;-80
2022/02/02 17:40:12;;;;;;;7.20;3.50;;;;;;;;;;4969714;28;20042;-78
2022/02/02 17:45:44;;;;;;;4.80;3.00;;;;;;;;;;4964941;28;20034;-80
2022/02/02 17:56:25;;;;;;;7.07;3.65;;;;;;;;;;4979317;28;20090;-80
2022/02/02 18:12:57;;;;;;;11.48;3.97;;;;;;;;;;4971707;28;20045;-81
2022/02/02 18:20:41;;;;;;;8.23;3.67;;;;;;;;;;4978678;28;20027;-82
2022/02/02 18:31:22;;;;;;;6.53;2.60;;;;;;;;;;4980320;28;20453;-81
2022/02/02 18:36:24;;;;;;;5.47;2.67;;;;;;;;;;4979908;28;20030;-78
2022/02/02 18:47:19;;;;;;;5.63;2.95;;;;;;;;;;4974418;28;20035;-81
2022/02/02 18:50:00;;;;;;;4.88;2.97;;;;;;;;;;4961180;28;20046;-78
2022/02/02 18:52:47;;;;;;;7.65;3.92;;;;;;;;;;4960734;28;20035;-80
2022/02/02 19:00:33;;;;;;;9.52;4.00;;;;;;;;;;4974405;28;20050;-80
2022/02/02 19:52:26;;;;;;;6.93;3.80;;;;;;;;;;4972244;28;20158;-81
2022/02/02 19:57:22;;;;;;;9.30;3.90;;;;;;;;;;4972560;28;20035;-80
2022/02/02 20:08:24;;;;;;;5.75;3.95;;;;;;;;;;4958307;28;20049;-81
2022/02/02 20:11:04;;;;;;;8.27;4.35;;;;;;;;;;4953212;28;20060;-80
2022/02/02 20:13:30;;;;;;;6.13;4.25;;;;;;;;;;4957378;28;20498;-80
2022/02/02 20:15:56;;;;;;;8.25;4.65;;;;;;;;;;4975948;28;20405;-83
2022/02/02 20:18:24;;;;;;;8.10;5.10;;;;;;;;;;4960048;28;20031;-80
2022/02/02 20:20:55;;;;;;;6.75;4.05;;;;;;;;;;4978447;28;20027;-82
2022/02/02 20:23:21;;;;;;;6.65;4.32;;;;;;;;;;4977413;28;20084;-81
2022/02/02 20:25:51;;;;;;;6.57;4.30;;;;;;;;;;4970145;28;20031;-80
2022/02/02 20:28:18;;;;;;;12.70;4.80;;;;;;;;;;4980014;28;20544;-80
2022/02/02 20:30:44;;;;;;;8.68;5.00;;;;;;;;;;4981048;28;20536;-80
2022/02/02 20:33:10;;;;;;;10.23;5.10;;;;;;;;;;4976239;28;20023;-82
2022/02/02 20:35:36;;;;;;;7.88;4.00;;;;;;;;;;4965126;28;20030;-80
2022/02/02 20:38:03;;;;;;;6.80;3.85;;;;;;;;;;4967412;28;20027;-82
2022/02/02 20:40:29;;;;;;;7.50;4.45;;;;;;;;;;4965868;28;20023;-81
2022/02/02 21:13:39;;;;;;;5.05;3.40;;;;;;;;;;4979230;28;20061;-80
2022/02/02 21:14:40;;;;;;;5.53;3.05;;;;;;;;;;4975289;28;20496;-80
2022/02/02 21:17:16;;;;;;;8.02;4.03;;;;;;;;;;4968459;28;20027;-81
2022/02/02 21:19:57;;;;;;;6.25;3.92;;;;;;;;;;4961709;28;20450;-80
2022/02/02 21:22:26;;;;;;;5.35;3.30;;;;;;;;;;4972228;28;20038;-80
2022/02/02 21:25:29;;;;;;;7.22;3.65;;;;;;;;;;4977354;28;20073;-81
2022/02/02 21:27:57;;;;;;;4.95;3.10;;;;;;;;;;4976342;28;20051;-80
2022/02/02 21:30:26;;;;;;;6.38;3.80;;;;;;;;;;4976689;28;20027;-82
2022/02/02 21:32:52;;;;;;;4.30;2.97;;;;;;;;;;4978072;28;20572;-80
2022/02/02 21:35:18;;;;;;;6.38;3.30;;;;;;;;;;4978306;28;20465;-81
2022/02/02 21:37:47;;;;;;;5.95;3.28;;;;;;;;;;4983542;28;20030;-80
2022/02/02 21:40:23;;;;;;;5.03;3.38;;;;;;;;;;4977201;28;20062;-80
2022/02/02 21:42:57;;;;;;;6.05;3.25;;;;;;;;;;4960349;28;20085;-80
2022/02/02 21:45:24;;;;;;;6.28;3.10;;;;;;;;;;4959550;28;20113;-81
2022/02/02 21:47:50;;;;;;;5.20;3.08;;;;;;;;;;4958989;28;20023;-80
2022/02/02 21:50:19;;;;;;;5.55;3.10;;;;;;;;;;4965386;28;20074;-80
2022/02/02 21:52:47;;;;;;;6.15;3.38;;;;;;;;;;4951758;28;20788;-80
2022/02/02 21:55:13;;;;;;;5.45;2.85;;;;;;;;;;4976385;28;20025;-82
2022/02/02 21:57:41;;;;;;;6.53;3.00;;;;;;;;;;4965240;28;20034;-80
2022/02/02 22:00:08;;;;;;;5.28;2.90;;;;;;;;;;4964438;28;20034;-80
2022/02/02 22:02:36;;;;;;;4.57;3.00;;;;;;;;;;4977303;28;20049;-79
2022/02/02 22:05:03;;;;;;;4.63;3.08;;;;;;;;;;4980508;28;20484;-82
2022/02/02 22:07:29;;;;;;;6.38;3.58;;;;;;;;;;4960742;28;20035;-80
2022/02/02 22:09:57;;;;;;;5.32;3.45;;;;;;;;;;4977521;28;20027;-80
2022/02/02 22:12:24;;;;;;;6.88;3.50;;;;;;;;;;4975238;28;20493;-80
2022/02/02 22:14:52;;;;;;;6.30;3.70;;;;;;;;;;4963106;28;20029;-81
2022/02/02 22:17:20;;;;;;;5.72;3.30;;;;;;;;;;4976601;28;20015;-81
2022/02/02 22:19:51;;;;;;;7.07;4.18;;;;;;;;;;4960713;28;20393;-80
2022/02/02 22:22:16;;;;;;;;;;;9.30;99.90;;;;;;4970808;28;20030;-80
2022/02/02 22:24:48;;;;;;;5.72;2.97;;;;;;;;;;4959980;28;19910;-82
2022/02/02 22:27:14;;;;;;;6.70;3.97;;;;;;;;;;4960142;28;20031;-80
2022/02/02 22:29:41;;;;;;;5.57;3.35;;;;;;;;;;4976953;28;20034;-79
2022/02/02 22:32:07;;;;;;;5.15;3.53;;;;;;;;;;4976652;28;20078;-82
2022/02/02 22:34:34;;;;;;;7.03;3.83;;;;;;;;;;4976167;28;20041;-81
2022/02/02 22:37:00;;;;;;;8.75;4.10;;;;;;;;;;4975213;28;20027;-79
2022/02/02 22:39:27;;;;;;;7.57;3.55;;;;;;;;;;4961094;28;20034;-80
2022/02/02 22:41:54;;;;;;;5.18;3.55;;;;;;;;;;4976461;28;20114;-79
2022/02/02 22:44:20;;;;;;;7.88;4.50;;;;;;;;;;4965544;28;20066;-81
2022/02/02 22:46:46;;;;;;;7.05;5.00;;;;;;;;;;4977349;28;20053;-79
2022/02/02 22:49:13;;;;;;;4.90;3.58;;;;;;;;;;4975462;28;20042;-80
2022/02/02 22:51:44;;;;;;;14.30;6.55;;;;;;;;;;4960871;28;20195;-80
2022/02/02 22:54:10;;;;;;;12.52;6.85;;;;;;;;;;4978815;28;20082;-80
2022/02/02 22:56:40;;;;;;;8.05;3.72;;;;;;;;;;4974927;28;20034;-82
2022/02/02 22:59:06;;;;;;;7.32;3.83;;;;;;;;;;4960253;28;20037;-80
2022/02/02 23:01:35;;;;;;;8.35;4.65;;;;;;;;;;4960183;28;20031;-79
2022/02/02 23:04:02;;;;;;;5.53;3.63;;;;;;;;;;4976699;28;20031;-79
2022/02/02 23:06:31;;;;;;;7.13;4.20;;;;;;;;;;4958214;28;20037;-79
2022/02/02 23:08:59;;;;;;;7.82;3.53;;;;;;;;;;4984541;28;20433;-80
2022/02/02 23:11:26;;;;;;;6.85;3.58;;;;;;;;;;4979414;28;20528;-82
2022/02/02 23:13:55;;;;;;;6.18;3.60;;;;;;;;;;4977836;28;20056;-80
2022/02/02 23:16:31;;;;;;;8.90;3.77;;;;;;;;;;4978714;28;20100;-80
2022/02/02 23:18:57;;;;;;;5.53;3.13;;;;;;;;;;4977410;28;20049;-81
2022/02/02 23:21:27;;;;;;;6.18;3.72;;;;;;;;;;4965819;28;20034;-80
2022/02/02 23:23:57;;;;;;;9.70;5.45;;;;;;;;;;4981362;28;20035;-79
2022/02/02 23:26:24;;;;;;;8.02;3.83;;;;;;;;;;4977770;28;20046;-82
2022/02/02 23:28:53;;;;;;;7.22;3.45;;;;;;;;;;4967976;28;20035;-79
2022/02/02 23:31:19;;;;;;;5.47;3.55;;;;;;;;;;4982703;28;20038;-81
2022/02/02 23:33:46;;;;;;;6.82;3.55;;;;;;;;;;4971612;28;20557;-79
2022/02/02 23:36:13;;;;;;;7.60;4.15;;;;;;;;;;4971310;28;20090;-80
2022/02/02 23:38:39;;;;;;;6.90;3.33;;;;;;;;;;4978716;28;20023;-79
2022/02/02 23:43:46;;;;;;;8.70;4.35;;;;;;;;;;4978180;28;20037;-80
2022/02/02 23:46:18;;;;;;;6.45;3.88;;;;;;;;;;4976533;28;20023;-80
2022/02/02 23:48:45;;;;;;;12.45;6.57;;;;;;;;;;4978802;28;20039;-80
2022/02/02 23:51:34;;;;;;;7.07;3.65;;;;;;;;;;4963637;28;20074;-80
2022/02/02 23:54:03;;;;;;;10.82;5.80;;;;;;;;;;4983003;28;20027;-83
2022/02/02 23:57:02;;;;;;;7.72;4.45;;;;;;;;;;4981520;28;20078;-80
2022/02/02 23:59:44;;;;;;;11.32;5.30;;;;;;;;;;4979384;28;20085;-80
